Time;durP1;ratioP1;P1;durP2;ratioP2;P2;SDS_P1;SDS_P2;PMS_P1;PMS_P2;Temp;Humidity;BMP_temperature;BMP_pressure;BME280_temperature;BME280_humidity;BME280_pressure;Samples;Min_cycle;Max_cycle;Signal;HPM_P1;HPM_P2
2022/06/29 00:00:20;;;;;;;16.23;14.05;;;22.70;99.90;;;;;;5016554;28;20230;-75
2022/06/29 00:03:10;;;;;;;15.55;13.95;;;22.70;99.90;;;;;;4999155;28;20232;-75
2022/06/29 00:05:59;;;;;;;14.50;12.40;;;22.80;99.90;;;;;;5015696;28;20232;-75
2022/06/29 00:08:47;;;;;;;14.43;12.93;;;22.70;99.90;;;;;;5003299;28;20729;-75
2022/06/29 00:11:36;;;;;;;13.88;12.48;;;22.70;99.90;;;;;;5022712;28;20711;-74
2022/06/29 00:14:25;;;;;;;14.27;12.73;;;22.70;99.90;;;;;;5024408;28;20903;-76
2022/06/29 00:17:13;;;;;;;14.00;11.68;;;22.70;99.90;;;;;;5002214;28;20225;-75
2022/06/29 00:20:10;;;;;;;16.35;11.95;;;22.70;99.90;;;;;;5016913;28;20708;-75
2022/06/29 00:22:59;;;;;;;12.25;10.95;;;22.70;99.90;;;;;;5014394;28;20217;-74
2022/06/29 00:25:47;;;;;;;12.32;11.02;;;22.70;99.90;;;;;;5017360;28;20236;-75
2022/06/29 00:28:36;;;;;;;12.43;11.13;;;22.80;99.90;;;;;;5001772;28;20229;-75
2022/06/29 00:31:25;;;;;;;12.18;11.02;;;22.70;99.90;;;;;;5021105;28;20218;-75
2022/06/29 00:34:13;;;;;;;14.55;11.27;;;22.70;99.90;;;;;;5020227;28;20225;-75
2022/06/29 00:37:04;;;;;;;12.27;11.10;;;22.80;99.90;;;;;;5022664;28;20221;-74
2022/06/29 00:39:53;;;;;;;13.73;12.38;;;22.70;99.90;;;;;;5020079;28;20692;-74
2022/06/29 00:42:41;;;;;;;13.32;11.98;;;22.70;99.90;;;;;;5020978;28;20698;-76
2022/06/29 00:45:30;;;;;;;13.23;11.68;;;22.70;99.90;;;;;;5018508;28;20226;-74
2022/06/29 00:48:18;;;;;;;12.88;11.57;;;22.70;99.90;;;;;;5015653;28;20234;-74
2022/06/29 00:51:11;;;;;;;13.52;12.18;;;22.70;99.90;;;;;;5019880;28;20245;-72
2022/06/29 00:54:05;;;;;;;12.95;11.70;;;22.70;99.90;;;;;;5018267;28;20312;-73
2022/06/29 00:56:53;;;;;;;15.13;12.95;;;22.70;99.90;;;;;;5015484;28;20334;-75
2022/06/29 00:59:44;;;;;;;13.48;12.10;;;22.70;99.90;;;;;;5030460;28;20240;-74
2022/06/29 01:02:33;;;;;;;16.35;12.05;;;22.70;99.90;;;;;;5022130;28;20711;-74
2022/06/29 01:05:21;;;;;;;15.15;12.10;;;22.70;99.90;;;;;;5023708;28;20240;-74
2022/06/29 01:08:12;;;;;;;13.55;12.13;;;22.60;99.90;;;;;;5022129;28;20240;-78
2022/06/29 01:11:02;;;;;;;13.27;11.95;;;22.50;99.90;;;;;;5022953;28;20233;-78
2022/06/29 01:13:50;;;;;;;14.65;13.05;;;22.40;99.90;;;;;;5018477;28;20299;-74
2022/06/29 01:16:39;;;;;;;16.65;12.25;;;22.40;99.90;;;;;;5024385;28;20225;-75
2022/06/29 01:19:28;;;;;;;14.68;13.18;;;22.40;99.90;;;;;;5022952;28;20249;-75
2022/06/29 01:22:20;;;;;;;14.32;12.82;;;22.40;99.90;;;;;;5025032;28;20234;-74
2022/06/29 01:25:09;;;;;;;14.68;12.80;;;22.30;99.90;;;;;;5020023;28;20324;-74
2022/06/29 01:28:01;;;;;;;16.27;14.18;;;22.20;99.90;;;;;;5005996;28;20289;-75
2022/06/29 01:30:50;;;;;;;17.77;14.93;;;22.10;99.90;;;;;;5015242;28;20759;-75
2022/06/29 01:33:39;;;;;;;19.60;16.10;;;22.10;99.90;;;;;;5017900;28;20229;-76
2022/06/29 01:36:27;;;;;;;17.58;15.10;;;22.00;99.90;;;;;;5009434;28;20228;-74
2022/06/29 01:39:17;;;;;;;18.65;16.80;;;22.00;99.90;;;;;;5008315;28;20229;-74
2022/06/29 01:42:06;;;;;;;18.77;16.98;;;22.00;99.90;;;;;;5008495;28;20232;-73
2022/06/29 01:44:55;;;;;;;19.73;17.08;;;22.10;99.90;;;;;;5020926;28;20232;-73
2022/06/29 01:47:44;;;;;;;19.17;17.20;;;22.10;99.90;;;;;;5016307;28;20228;-74
2022/06/29 01:50:32;;;;;;;20.02;17.92;;;22.10;99.90;;;;;;5020294;28;20241;-73
2022/06/29 01:53:21;;;;;;;19.15;16.67;;;22.10;99.90;;;;;;5019613;28;20226;-75
2022/06/29 01:56:10;;;;;;;20.75;17.83;;;22.20;99.90;;;;;;5019581;28;20225;-74
2022/06/29 01:58:59;;;;;;;20.08;18.05;;;22.30;99.90;;;;;;5019193;28;20233;-74
2022/06/29 02:01:48;;;;;;;22.00;17.02;;;22.20;99.90;;;;;;5020015;28;20238;-75
2022/06/29 02:04:37;;;;;;;20.20;17.98;;;22.10;99.90;;;;;;5022765;28;20222;-75
2022/06/29 02:07:26;;;;;;;22.20;17.73;;;22.00;99.90;;;;;;5024307;28;20365;-74
2022/06/29 02:10:14;;;;;;;22.50;16.80;;;22.10;99.90;;;;;;5020901;28;20225;-76
2022/06/29 02:13:04;;;;;;;18.75;16.75;;;22.10;99.90;;;;;;5018555;28;20328;-72
2022/06/29 02:15:53;;;;;;;17.67;15.82;;;22.10;99.90;;;;;;5007729;28;20225;-72
2022/06/29 02:18:41;;;;;;;16.70;15.10;;;22.20;99.90;;;;;;5016854;28;20316;-71
2022/06/29 02:21:30;;;;;;;17.25;15.45;;;22.10;99.90;;;;;;5012520;28;20328;-71
2022/06/29 02:24:19;;;;;;;15.32;13.80;;;22.10;99.90;;;;;;5018958;28;20226;-74
2022/06/29 02:27:11;;;;;;;14.73;13.05;;;22.10;99.90;;;;;;5022914;28;20585;-72
2022/06/29 02:30:01;;;;;;;14.38;12.55;;;22.10;99.90;;;;;;5022438;28;20249;-72
2022/06/29 02:35:58;;;;;;;13.38;12.10;;;22.00;99.90;;;;;;5018580;28;20588;-74
2022/06/29 02:38:51;;;;;;;14.82;12.32;;;22.00;99.90;;;;;;5021587;28;20275;-75
2022/06/29 02:41:39;;;;;;;13.95;12.50;;;22.00;99.90;;;;;;5022005;28;20232;-73
2022/06/29 02:44:28;;;;;;;14.20;12.00;;;22.00;99.90;;;;;;5022448;28;20237;-73
2022/06/29 02:47:21;;;;;;;14.13;11.82;;;22.00;99.90;;;;;;5022237;28;20236;-74
2022/06/29 02:50:10;;;;;;;12.75;10.85;;;21.90;99.90;;;;;;5020337;28;20229;-73
2022/06/29 02:52:59;;;;;;;11.98;10.60;;;21.80;99.90;;;;;;5013699;28;20236;-73
2022/06/29 02:55:50;;;;;;;11.93;10.55;;;21.90;99.90;;;;;;5020632;28;20710;-74
2022/06/29 02:58:39;;;;;;;11.13;10.02;;;21.80;99.90;;;;;;5004466;28;20690;-73
2022/06/29 03:01:27;;;;;;;11.70;10.57;;;21.70;99.90;;;;;;5009958;28;20240;-72
2022/06/29 03:04:21;;;;;;;14.35;10.55;;;21.70;99.90;;;;;;5023612;28;20222;-72
2022/06/29 03:07:09;;;;;;;10.98;9.90;;;21.90;99.90;;;;;;5022339;28;20225;-72
2022/06/29 03:09:58;;;;;;;11.90;10.63;;;22.00;99.90;;;;;;5005859;28;20709;-72
2022/06/29 03:12:46;;;;;;;13.13;10.68;;;22.00;99.90;;;;;;5020657;28;20225;-73
2022/06/29 03:15:34;;;;;;;15.43;11.68;;;22.00;99.90;;;;;;5016028;28;20279;-74
2022/06/29 03:18:23;;;;;;;11.63;10.40;;;22.10;99.90;;;;;;5015499;28;20222;-74
2022/06/29 03:21:13;;;;;;;12.18;10.98;;;22.10;99.90;;;;;;5022748;28;20225;-73
2022/06/29 03:24:03;;;;;;;11.77;10.68;;;22.10;99.90;;;;;;5019221;28;20708;-74
2022/06/29 03:26:52;;;;;;;11.88;10.68;;;22.00;99.90;;;;;;5018794;28;20700;-78
2022/06/29 03:29:41;;;;;;;13.07;11.77;;;22.10;99.90;;;;;;5016661;28;20945;-76
2022/06/29 03:32:30;;;;;;;14.20;11.57;;;22.10;99.90;;;;;;5015286;28;20222;-76
2022/06/29 03:35:18;;;;;;;12.52;11.23;;;22.10;99.90;;;;;;5006984;28;20233;-75
2022/06/29 03:38:08;;;;;;;13.73;12.30;;;22.10;99.90;;;;;;5012922;28;20236;-75
2022/06/29 03:40:56;;;;;;;14.43;12.90;;;22.20;99.90;;;;;;5018099;28;20225;-75
2022/06/29 03:43:45;;;;;;;14.43;13.02;;;22.00;99.90;;;;;;5019976;28;20750;-74
2022/06/29 03:46:34;;;;;;;19.33;12.60;;;22.10;99.90;;;;;;5019977;28;20751;-76
2022/06/29 03:49:22;;;;;;;14.60;12.40;;;22.00;99.90;;;;;;5016827;28;20745;-76
2022/06/29 03:52:11;;;;;;;16.75;13.70;;;22.00;99.90;;;;;;5021350;28;20239;-76
2022/06/29 03:55:01;;;;;;;15.10;12.90;;;22.10;99.90;;;;;;5014420;28;20226;-76
2022/06/29 03:57:49;;;;;;;14.77;13.02;;;22.10;99.90;;;;;;5021918;28;20213;-77
2022/06/29 04:00:38;;;;;;;14.98;13.02;;;22.10;99.90;;;;;;5008442;28;20255;-76
2022/06/29 04:03:26;;;;;;;15.73;13.55;;;22.00;99.90;;;;;;5024003;28;20359;-76
2022/06/29 04:06:15;;;;;;;17.77;14.10;;;22.00;99.90;;;;;;5019508;28;20221;-74
2022/06/29 04:09:04;;;;;;;19.77;13.75;;;22.00;99.90;;;;;;4999971;28;20734;-72
2022/06/29 04:11:54;;;;;;;16.27;12.88;;;22.10;99.90;;;;;;5005708;28;20236;-73
2022/06/29 04:14:46;;;;;;;16.80;13.65;;;22.10;99.90;;;;;;5018657;28;20359;-75
2022/06/29 04:17:35;;;;;;;15.32;13.73;;;22.20;99.90;;;;;;5018884;28;20233;-72
2022/06/29 04:23:30;;;;;;;16.15;13.45;;;22.40;99.90;;;;;;5017424;28;20222;-73
2022/06/29 04:26:19;;;;;;;14.23;12.73;;;22.30;99.90;;;;;;5006808;28;20235;-74
2022/06/29 04:29:09;;;;;;;15.27;13.65;;;22.30;99.90;;;;;;5018610;28;20335;-75
2022/06/29 04:31:58;;;;;;;16.63;13.55;;;22.30;99.90;;;;;;5017250;28;20270;-74
2022/06/29 04:34:46;;;;;;;17.42;14.20;;;22.40;99.90;;;;;;5003317;28;20552;-74
2022/06/29 04:37:35;;;;;;;13.80;12.40;;;22.20;99.90;;;;;;5016872;28;20253;-71
2022/06/29 04:40:23;;;;;;;16.05;13.25;;;22.10;99.90;;;;;;5019347;28;20226;-72
2022/06/29 04:43:12;;;;;;;18.42;13.65;;;21.90;99.90;;;;;;5019603;28;20230;-73
2022/06/29 04:46:20;;;;;;;17.45;13.82;;;22.10;99.90;;;;;;5006592;28;20588;-73
2022/06/29 04:49:09;;;;;;;14.40;12.90;;;22.10;99.90;;;;;;5018770;28;20218;-73
2022/06/29 04:51:57;;;;;;;18.55;13.60;;;22.20;99.90;;;;;;5009800;28;20648;-73
2022/06/29 04:54:46;;;;;;;16.35;13.35;;;22.10;99.90;;;;;;5019294;28;20221;-74
2022/06/29 04:57:34;;;;;;;15.20;13.60;;;22.00;99.90;;;;;;5020853;28;20210;-71
2022/06/29 05:00:23;;;;;;;19.65;15.70;;;21.70;99.90;;;;;;5004444;28;20235;-73
2022/06/29 05:03:16;;;;;;;19.85;15.10;;;21.70;99.90;;;;;;5018105;28;20229;-73
2022/06/29 05:06:05;;;;;;;19.15;15.00;;;21.60;99.90;;;;;;5019135;28;20248;-74
2022/06/29 05:08:54;;;;;;;26.75;15.80;;;21.60;99.90;;;;;;5020832;28;20225;-74
2022/06/29 05:11:42;;;;;;;19.40;16.98;;;21.80;99.90;;;;;;5018839;28;20658;-75
2022/06/29 05:14:31;;;;;;;17.05;15.23;;;21.80;99.90;;;;;;5022364;28;20316;-74
2022/06/29 05:17:19;;;;;;;23.50;15.98;;;21.90;99.90;;;;;;5021920;28;20225;-74
2022/06/29 05:20:15;;;;;;;18.00;15.70;;;22.00;99.90;;;;;;5022081;28;20747;-75
2022/06/29 05:23:04;;;;;;;20.55;16.33;;;22.10;99.90;;;;;;5022241;28;20226;-76
2022/06/29 05:25:53;;;;;;;21.95;17.95;;;22.20;99.90;;;;;;5020386;28;20228;-78
2022/06/29 05:28:42;;;;;;;20.45;18.27;;;21.90;99.90;;;;;;5016202;28;20284;-78
2022/06/29 05:31:31;;;;;;;20.90;18.42;;;22.00;99.90;;;;;;5026650;28;20233;-75
2022/06/29 05:34:20;;;;;;;23.15;18.40;;;22.10;99.90;;;;;;5021738;28;20324;-75
2022/06/29 05:37:11;;;;;;;20.35;17.40;;;22.00;99.90;;;;;;5033516;28;20715;-76
2022/06/29 05:40:01;;;;;;;19.60;17.50;;;21.90;99.90;;;;;;5025296;28;20653;-77
2022/06/29 05:42:49;;;;;;;19.17;17.00;;;22.00;99.90;;;;;;5018016;28;20229;-78
2022/06/29 05:45:37;;;;;;;20.40;17.17;;;22.10;99.90;;;;;;5015748;28;20534;-75
2022/06/29 05:48:26;;;;;;;20.00;17.63;;;22.20;99.90;;;;;;5008870;28;20751;-74
2022/06/29 05:51:15;;;;;;;17.80;15.40;;;22.20;99.90;;;;;;5017454;28;20226;-72
2022/06/29 05:54:05;;;;;;;17.33;14.93;;;22.00;99.90;;;;;;5020445;28;20213;-73
2022/06/29 05:56:53;;;;;;;19.20;14.40;;;22.30;99.90;;;;;;5007819;28;20225;-73
2022/06/29 05:59:42;;;;;;;16.10;14.40;;;22.50;99.90;;;;;;5004832;28;20226;-75
2022/06/29 06:02:31;;;;;;;15.82;14.20;;;22.40;99.90;;;;;;5020109;28;20233;-71
2022/06/29 06:05:20;;;;;;;17.95;14.60;;;22.60;99.90;;;;;;5005656;28;20229;-72
2022/06/29 06:08:09;;;;;;;17.17;14.75;;;22.50;99.90;;;;;;5019843;28;20233;-70
2022/06/29 06:10:59;;;;;;;17.77;15.80;;;22.70;99.90;;;;;;5022603;28;20217;-70
2022/06/29 06:13:47;;;;;;;19.38;16.30;;;22.60;99.90;;;;;;5018866;28;20747;-71
2022/06/29 06:16:36;;;;;;;18.85;16.48;;;22.50;99.90;;;;;;5012637;28;20221;-72
2022/06/29 06:19:29;;;;;;;17.65;15.50;;;22.50;99.90;;;;;;5022576;28;20236;-73
2022/06/29 06:22:17;;;;;;;18.80;15.65;;;22.60;99.90;;;;;;5008881;28;20585;-73
2022/06/29 06:25:07;;;;;;;18.83;16.80;;;22.70;99.90;;;;;;5015904;28;20235;-73
2022/06/29 06:27:56;;;;;;;20.95;16.00;;;22.60;99.90;;;;;;5018861;28;20257;-73
2022/06/29 06:30:45;;;;;;;17.42;15.13;;;22.70;99.90;;;;;;5003633;28;20690;-74
2022/06/29 06:33:34;;;;;;;18.90;14.40;;;22.80;99.90;;;;;;5022573;28;20369;-73
2022/06/29 06:36:23;;;;;;;15.50;13.90;;;23.00;99.90;;;;;;5020335;28;20241;-73
2022/06/29 06:39:11;;;;;;;19.65;15.52;;;23.10;99.90;;;;;;5016003;28;20237;-74
2022/06/29 06:41:59;;;;;;;18.63;15.70;;;23.20;99.90;;;;;;5023276;28;20278;-75
2022/06/29 06:44:52;;;;;;;19.83;15.85;;;23.20;99.90;;;;;;5020394;28;20751;-72
2022/06/29 06:47:41;;;;;;;18.17;15.40;;;23.10;99.90;;;;;;5008590;28;20225;-74
2022/06/29 06:50:29;;;;;;;19.70;15.40;;;23.20;99.90;;;;;;5029863;28;20236;-73
2022/06/29 06:53:18;;;;;;;18.17;15.18;;;23.30;99.90;;;;;;5021693;28;20273;-75
2022/06/29 06:56:07;;;;;;;17.80;15.90;;;23.30;99.90;;;;;;5018257;28;20230;-74
2022/06/29 06:58:56;;;;;;;17.17;15.38;;;23.00;99.90;;;;;;5000836;28;20225;-73
2022/06/29 07:01:46;;;;;;;19.10;16.63;;;22.90;99.90;;;;;;5005254;28;20690;-72
2022/06/29 07:04:41;;;;;;;18.30;15.98;;;23.00;99.90;;;;;;5016716;28;20241;-74
2022/06/29 07:07:29;;;;;;;20.92;16.27;;;23.00;99.90;;;;;;5015051;28;20962;-74
2022/06/29 07:10:18;;;;;;;16.77;15.00;;;23.00;99.90;;;;;;5019972;28;20343;-73
2022/06/29 07:13:06;;;;;;;21.60;16.92;;;23.10;99.90;;;;;;5017747;28;20737;-76
2022/06/29 07:15:56;;;;;;;20.88;16.20;;;23.20;99.90;;;;;;5018277;28;20295;-74
2022/06/29 07:18:48;;;;;;;17.40;15.30;;;23.40;99.90;;;;;;5018064;28;20233;-74
2022/06/29 07:21:36;;;;;;;17.80;15.90;;;23.50;99.90;;;;;;5021937;28;20615;-74
2022/06/29 07:24:25;;;;;;;18.30;15.25;;;23.70;99.90;;;;;;5003761;28;20706;-75
2022/06/29 07:27:14;;;;;;;18.13;15.23;;;23.80;99.90;;;;;;5020240;28;20231;-74
2022/06/29 07:30:03;;;;;;;18.00;15.48;;;23.80;99.90;;;;;;5021656;28;20379;-75
2022/06/29 07:32:52;;;;;;;18.20;14.63;;;23.70;99.90;;;;;;5014579;28;20247;-73
2022/06/29 07:35:41;;;;;;;17.98;15.80;;;23.70;99.90;;;;;;5018649;28;20231;-73
2022/06/29 07:38:30;;;;;;;21.55;16.23;;;23.60;99.90;;;;;;5003309;28;20417;-76
2022/06/29 07:41:19;;;;;;;17.85;15.82;;;23.50;99.90;;;;;;5020184;28;20673;-74
2022/06/29 07:44:08;;;;;;;21.95;17.50;;;23.20;99.90;;;;;;5023127;28;20745;-74
2022/06/29 07:46:56;;;;;;;19.25;15.93;;;23.10;99.90;;;;;;5021240;28;20217;-74
2022/06/29 07:49:45;;;;;;;17.38;15.10;;;23.10;99.90;;;;;;5007142;28;20252;-74
2022/06/29 07:52:36;;;;;;;20.83;15.50;;;23.10;99.90;;;;;;5018035;28;20217;-75
2022/06/29 07:55:25;;;;;;;21.23;15.95;;;23.10;99.90;;;;;;5018264;28;20321;-77
2022/06/29 07:58:14;;;;;;;19.45;16.42;;;23.20;99.90;;;;;;5010745;28;20344;-73
2022/06/29 08:01:03;;;;;;;19.42;15.52;;;23.50;99.90;;;;;;5018274;28;20292;-73
2022/06/29 08:03:53;;;;;;;18.33;14.30;;;23.90;99.90;;;;;;5016530;28;20234;-72
2022/06/29 08:06:42;;;;;;;18.73;15.57;;;24.20;99.90;;;;;;5016614;28;20217;-73
2022/06/29 08:09:33;;;;;;;17.45;15.65;;;24.80;99.90;;;;;;5019646;28;20771;-70
2022/06/29 08:12:22;;;;;;;18.88;15.68;;;24.60;99.90;;;;;;5018509;28;20267;-73
2022/06/29 08:15:11;;;;;;;16.65;15.05;;;24.50;99.90;;;;;;5017704;28;20218;-76
2022/06/29 08:17:59;;;;;;;17.27;15.57;;;24.50;99.90;;;;;;5016653;28;20683;-71
2022/06/29 08:20:48;;;;;;;17.23;15.52;;;24.30;99.90;;;;;;5023826;28;20225;-72
2022/06/29 08:23:37;;;;;;;19.13;15.27;;;24.50;99.90;;;;;;5022096;28;20218;-71
2022/06/29 08:26:34;;;;;;;20.50;14.52;;;24.70;99.90;;;;;;5021616;28;20225;-69
2022/06/29 08:29:42;;;;;;;19.63;14.15;;;24.90;99.90;;;;;;5018929;28;20228;-68
2022/06/29 08:32:31;;;;;;;20.33;15.18;;;24.90;99.90;;;;;;5008367;28;20734;-71
2022/06/29 08:35:19;;;;;;;17.80;15.48;;;24.80;99.90;;;;;;5025080;28;20225;-71
2022/06/29 08:38:08;;;;;;;18.40;16.50;;;24.40;99.90;;;;;;5016171;28;20229;-69
2022/06/29 08:40:57;;;;;;;17.17;15.05;;;24.60;99.90;;;;;;5020964;28;20221;-69
2022/06/29 08:43:47;;;;;;;19.08;15.35;;;24.60;99.90;;;;;;5016081;28;20861;-68
2022/06/29 08:46:36;;;;;;;17.15;15.15;;;24.70;99.90;;;;;;5012757;28;20253;-68
2022/06/29 08:49:25;;;;;;;16.60;14.88;;;24.80;99.90;;;;;;5021121;28;20217;-68
2022/06/29 08:52:14;;;;;;;17.15;14.48;;;25.00;99.90;;;;;;5017818;28;20218;-68
2022/06/29 08:55:04;;;;;;;22.65;15.32;;;25.20;99.90;;;;;;5019865;28;20316;-71
2022/06/29 08:57:56;;;;;;;16.60;14.82;;;25.40;99.90;;;;;;5014185;28;20217;-70
2022/06/29 09:00:53;;;;;;;20.13;14.70;;;25.30;99.90;;;;;;5033149;28;20233;-71
2022/06/29 09:03:42;;;;;;;16.52;14.48;;;25.50;99.90;;;;;;5020389;28;20576;-69
2022/06/29 09:06:31;;;;;;;19.55;15.70;;;25.50;99.90;;;;;;5019764;28;20229;-70
2022/06/29 09:09:19;;;;;;;15.88;14.27;;;25.60;99.90;;;;;;5021652;28;20221;-69
2022/06/29 09:12:18;;;;;;;16.50;14.90;;;25.50;99.90;;;;;;5016600;28;20233;-79
2022/06/29 09:15:09;;;;;;;17.08;15.48;;;25.40;99.90;;;;;;5006998;28;20221;-72
2022/06/29 09:17:59;;;;;;;16.92;15.20;;;25.20;99.90;;;;;;5020068;28;20608;-70
2022/06/29 09:20:53;;;;;;;16.13;14.43;;;25.30;99.90;;;;;;5005163;28;20221;-67
2022/06/29 09:23:44;;;;;;;16.52;14.23;;;25.60;99.90;;;;;;5017490;28;20786;-69
2022/06/29 09:26:32;;;;;;;22.52;15.10;;;25.60;99.90;;;;;;5020102;28;20244;-67
2022/06/29 09:29:23;;;;;;;16.13;14.43;;;25.50;99.90;;;;;;5000373;28;20226;-66
2022/06/29 09:32:16;;;;;;;18.98;14.00;;;25.60;99.90;;;;;;5016531;28;20236;-69
2022/06/29 09:35:13;;;;;;;16.20;14.45;;;25.40;99.90;;;;;;5011741;28;20230;-70
2022/06/29 09:38:22;;;;;;;15.90;14.15;;;25.20;99.90;;;;;;5002565;28;20225;-69
2022/06/29 09:41:12;;;;;;;16.90;13.95;;;25.10;99.90;;;;;;5012801;28;20715;-70
2022/06/29 09:44:01;;;;;;;18.13;15.18;;;25.00;99.90;;;;;;5011496;28;20234;-72
2022/06/29 09:46:52;;;;;;;15.63;14.02;;;25.10;99.90;;;;;;5011894;28;20275;-69
2022/06/29 09:49:42;;;;;;;18.00;14.43;;;25.20;99.90;;;;;;5012108;28;20222;-70
2022/06/29 09:52:33;;;;;;;17.30;15.60;;;24.80;99.90;;;;;;5019065;28;20245;-68
2022/06/29 09:55:22;;;;;;;20.45;15.60;;;24.90;99.90;;;;;;5006936;28;20231;-71
2022/06/29 09:58:13;;;;;;;18.30;14.15;;;24.80;99.90;;;;;;5013681;28;20608;-69
2022/06/29 10:04:14;;;;;;;17.02;13.60;;;25.00;99.90;;;;;;5014216;28;20229;-71
2022/06/29 10:07:05;;;;;;;16.88;15.15;;;25.00;99.90;;;;;;5013327;28;20222;-68
2022/06/29 10:09:55;;;;;;;16.38;14.65;;;25.00;99.90;;;;;;5015365;28;20230;-72
2022/06/29 10:16:30;;;;;;;17.73;14.88;;;25.40;99.90;;;;;;5001758;28;20248;-69
2022/06/29 10:19:42;;;;;;;18.05;13.80;;;25.70;99.90;;;;;;5011429;28;20235;-68
2022/06/29 10:22:31;;;;;;;15.45;13.32;;;25.70;99.90;;;;;;5020993;28;20367;-69
2022/06/29 10:25:27;;;;;;;16.60;15.00;;;26.10;99.90;;;;;;5019935;28;20232;-70
2022/06/29 10:28:20;;;;;;;15.80;14.10;;;26.00;99.90;;;;;;5014754;28;20419;-70
2022/06/29 10:31:10;;;;;;;16.95;13.52;;;26.20;99.90;;;;;;5016399;28;20680;-69
2022/06/29 10:33:59;;;;;;;16.92;15.30;;;26.20;99.90;;;;;;5017255;28;20248;-69
2022/06/29 10:36:59;;;;;;;16.08;14.48;;;25.90;99.90;;;;;;5014511;28;20225;-69
2022/06/29 10:39:55;;;;;;;17.10;15.25;;;25.80;99.90;;;;;;5025154;28;20249;-69
2022/06/29 10:45:57;;;;;;;16.85;14.27;;;26.10;99.90;;;;;;5002553;28;20217;-71
2022/06/29 10:49:18;;;;;;;17.50;13.68;;;26.00;99.90;;;;;;5015357;28;20224;-71
2022/06/29 10:52:07;;;;;;;14.15;11.93;;;26.00;99.90;;;;;;5016076;28;20217;-70
2022/06/29 10:54:56;;;;;;;15.35;12.98;;;26.70;99.90;;;;;;5014014;28;20240;-71
2022/06/29 10:57:47;;;;;;;14.20;12.80;;;28.10;99.90;;;;;;5025351;28;20222;-72
2022/06/29 11:00:38;;;;;;;14.20;12.73;;;;;;;;;;5010288;28;20575;-72
2022/06/29 11:03:27;;;;;;;14.32;11.75;;;31.20;99.90;;;;;;5020733;28;20264;-70
2022/06/29 11:12:53;;;;;;;13.65;12.35;;;31.80;99.90;;;;;;5016050;28;20221;-68
2022/06/29 11:15:42;;;;;;;14.80;11.25;;;30.70;99.90;;;;;;5016591;28;20217;-70
2022/06/29 11:18:32;;;;;;;13.48;12.05;;;;;;;;;;5023512;28;20236;-70
2022/06/29 11:21:21;;;;;;;13.43;12.18;;;;;;;;;;5019996;28;20226;-70
2022/06/29 11:24:10;;;;;;;12.82;11.63;;;;;;;;;;5015078;28;20810;-70
2022/06/29 11:26:59;;;;;;;12.98;11.77;;;31.70;99.90;;;;;;5006829;28;20240;-69
2022/06/29 11:29:49;;;;;;;12.77;11.48;;;33.50;98.30;;;;;;5024323;28;20216;-69
2022/06/29 11:32:42;;;;;;;11.00;10.00;;;35.70;90.00;;;;;;5008709;28;21022;-70
2022/06/29 11:35:31;;;;;;;10.75;9.77;;;36.70;85.00;;;;;;5023091;28;20250;-69
2022/06/29 11:38:20;;;;;;;11.20;9.40;;;36.10;79.00;;;;;;5021804;28;20232;-70
2022/06/29 11:41:12;;;;;;;9.88;8.98;;;35.60;79.00;;;;;;5017693;28;20224;-70
2022/06/29 11:44:23;;;;;;;14.85;9.23;;;37.40;75.80;;;;;;5023151;28;20370;-70
2022/06/29 11:47:13;;;;;;;10.55;9.25;;;38.00;73.90;;;;;;5006581;28;20229;-70
2022/06/29 11:50:13;;;;;;;9.43;8.55;;;38.00;69.30;;;;;;5011131;28;20217;-70
2022/06/29 11:53:01;;;;;;;12.48;8.52;;;37.70;68.70;;;;;;5018229;28;20220;-69
2022/06/29 11:55:50;;;;;;;10.27;8.73;;;36.70;70.00;;;;;;5021735;28;20327;-70
2022/06/29 11:58:40;;;;;;;9.65;8.77;;;34.00;80.40;;;;;;5018605;28;20229;-71
2022/06/29 12:01:29;;;;;;;10.95;9.48;;;32.80;84.00;;;;;;5019935;28;20221;-69
2022/06/29 12:04:28;;;;;;;12.80;9.95;;;31.40;90.70;;;;;;5021845;28;20902;-68
2022/06/29 12:07:19;;;;;;;14.43;10.68;;;31.90;92.50;;;;;;5015387;28;20699;-69
2022/06/29 12:10:08;;;;;;;15.75;11.18;;;32.30;93.30;;;;;;5002922;28;20213;-71
2022/06/29 12:12:57;;;;;;;11.10;9.98;;;34.70;87.80;;;;;;5019581;28;20212;-69
2022/06/29 12:15:45;;;;;;;10.13;9.15;;;36.10;79.00;;;;;;5018094;28;20212;-71
2022/06/29 12:18:34;;;;;;;9.98;9.07;;;37.10;77.00;;;;;;5018283;28;20326;-69
2022/06/29 12:21:24;;;;;;;10.57;9.48;;;37.90;72.40;;;;;;5016441;28;20233;-70
2022/06/29 12:24:12;;;;;;;9.52;8.55;;;37.90;69.30;;;;;;5018352;28;20230;-70
2022/06/29 12:27:01;;;;;;;16.52;9.75;;;37.90;69.30;;;;;;5015610;28;20961;-67
2022/06/29 12:29:50;;;;;;;9.48;8.60;;;38.00;68.60;;;;;;5017587;28;21017;-67
2022/06/29 12:32:38;;;;;;;9.98;8.93;;;38.00;69.60;;;;;;5012619;28;20225;-70
2022/06/29 12:35:27;;;;;;;9.30;8.18;;;37.90;67.60;;;;;;5012166;28;20281;-68
2022/06/29 12:38:17;;;;;;;10.60;8.70;;;37.90;68.10;;;;;;5007529;28;20224;-70
2022/06/29 12:41:06;;;;;;;9.80;9.00;;;37.80;66.00;;;;;;5019570;28;20236;-69
2022/06/29 12:43:54;;;;;;;8.30;7.57;;;37.70;65.50;;;;;;5014428;28;20294;-72
2022/06/29 12:46:43;;;;;;;8.40;7.72;;;37.10;66.30;;;;;;5016033;28;20229;-73
2022/06/29 12:49:35;;;;;;;9.57;8.13;;;37.30;67.00;;;;;;5005479;28;20647;-71
2022/06/29 12:52:24;;;;;;;8.82;7.93;;;37.10;66.80;;;;;;5018564;28;20302;-72
2022/06/29 12:55:14;;;;;;;8.57;7.82;;;36.70;68.10;;;;;;5018138;28;20221;-73
2022/06/29 12:58:03;;;;;;;9.63;8.73;;;34.30;70.60;;;;;;5020200;28;20329;-72
2022/06/29 13:00:52;;;;;;;9.25;8.35;;;33.00;76.20;;;;;;5018414;28;20217;-72
2022/06/29 13:03:41;;;;;;;10.93;9.27;;;31.70;78.90;;;;;;5006199;28;20224;-71
2022/06/29 13:06:30;;;;;;;11.95;10.30;;;31.10;84.10;;;;;;5008397;28;20220;-71
2022/06/29 13:09:18;;;;;;;10.25;9.15;;;30.60;89.50;;;;;;5018769;28;20554;-72
2022/06/29 13:12:08;;;;;;;12.52;9.95;;;30.50;91.90;;;;;;5022771;28;20546;-71
2022/06/29 13:14:57;;;;;;;11.32;9.90;;;30.10;96.20;;;;;;5008513;28;20225;-72
2022/06/29 13:17:45;;;;;;;10.70;9.60;;;29.80;95.70;;;;;;5006163;28;20229;-72
2022/06/29 13:20:34;;;;;;;11.95;10.75;;;29.60;99.60;;;;;;5024491;28;20744;-70
2022/06/29 13:23:23;;;;;;;11.13;10.02;;;29.40;99.90;;;;;;5023281;28;20217;-72
2022/06/29 13:26:12;;;;;;;11.57;10.45;;;29.40;99.90;;;;;;5024184;28;20227;-72
2022/06/29 13:29:02;;;;;;;11.50;10.15;;;29.10;99.90;;;;;;5020120;28;20244;-73
2022/06/29 13:31:51;;;;;;;11.48;10.07;;;28.90;99.90;;;;;;5023925;28;20296;-74
2022/06/29 13:34:40;;;;;;;11.23;10.18;;;29.00;99.90;;;;;;5012591;28;20254;-71
2022/06/29 13:37:28;;;;;;;11.55;10.45;;;28.80;99.90;;;;;;5019749;28;20213;-72
2022/06/29 13:40:17;;;;;;;11.40;10.27;;;28.50;99.90;;;;;;5032267;28;20224;-72
2022/06/29 13:43:06;;;;;;;10.68;9.48;;;28.50;99.90;;;;;;5021781;28;20568;-74
2022/06/29 13:45:56;;;;;;;10.60;9.63;;;28.20;99.90;;;;;;5021367;28;20306;-72
2022/06/29 13:48:45;;;;;;;9.88;8.95;;;28.30;99.90;;;;;;5021889;28;20225;-72
2022/06/29 13:51:33;;;;;;;10.30;9.20;;;28.40;99.90;;;;;;5018332;28;20248;-71
2022/06/29 13:54:22;;;;;;;11.00;10.00;;;28.50;99.90;;;;;;5000781;28;20256;-72
2022/06/29 13:57:11;;;;;;;10.82;9.80;;;28.20;99.90;;;;;;5021332;28;20253;-71
2022/06/29 14:00:00;;;;;;;11.00;10.00;;;28.00;99.90;;;;;;5019301;28;20229;-70
2022/06/29 14:02:56;;;;;;;8.50;7.65;;;28.10;99.90;;;;;;5026390;28;20351;-70
2022/06/29 14:05:45;;;;;;;9.75;8.48;;;27.90;99.90;;;;;;5025101;28;20233;-74
2022/06/29 14:08:33;;;;;;;10.75;7.82;;;27.80;99.90;;;;;;5022785;28;20217;-74
2022/06/29 14:11:42;;;;;;;9.88;7.75;;;27.90;99.90;;;;;;5021692;28;20225;-72
2022/06/29 14:14:31;;;;;;;8.02;7.20;;;27.70;99.90;;;;;;5025918;28;20218;-71
2022/06/29 14:17:19;;;;;;;7.90;6.35;;;27.70;99.90;;;;;;5022870;28;20240;-72
2022/06/29 14:20:11;;;;;;;7.82;7.13;;;27.50;99.90;;;;;;5011863;28;20224;-71
2022/06/29 14:23:00;;;;;;;8.60;7.90;;;27.50;99.90;;;;;;5012029;28;20213;-72
2022/06/29 14:25:50;;;;;;;7.97;7.18;;;27.40;99.90;;;;;;5020040;28;20328;-71
2022/06/29 14:28:38;;;;;;;8.93;6.32;;;27.40;99.90;;;;;;5023272;28;20221;-71
2022/06/29 14:31:27;;;;;;;10.70;6.97;;;27.50;99.90;;;;;;5022226;28;20582;-72
2022/06/29 14:34:16;;;;;;;7.60;6.93;;;27.40;99.90;;;;;;5022476;28;20225;-70
2022/06/29 14:37:06;;;;;;;7.95;6.80;;;27.40;99.90;;;;;;5024082;28;20224;-69
2022/06/29 14:39:59;;;;;;;7.68;6.68;;;27.50;99.90;;;;;;5023564;28;21713;-68
2022/06/29 14:42:47;;;;;;;7.53;6.80;;;27.50;99.90;;;;;;5016612;28;20218;-69
2022/06/29 14:45:36;;;;;;;7.03;6.43;;;27.50;99.90;;;;;;5005308;28;20272;-68
2022/06/29 14:48:25;;;;;;;8.52;6.05;;;27.50;99.90;;;;;;5023341;28;20213;-69